sensor_id;sensor_type;location;lat;lon;timestamp;pressure;altitude;pressure_sealevel;temperature
60615;BMP280;46444;45.590;5.284;2022-10-24T00:00:16;98731.13;;;19.97
60615;BMP280;46444;45.590;5.284;2022-10-24T00:02:42;98731.81;;;20.03
60615;BMP280;46444;45.590;5.284;2022-10-24T00:05:07;98743.28;;;20.00
60615;BMP280;46444;45.590;5.284;2022-10-24T00:07:33;98706.50;;;19.94
60615;BMP280;46444;45.590;5.284;2022-10-24T00:09:58;98676.69;;;19.62
60615;BMP280;46444;45.590;5.284;2022-10-24T00:12:23;98701.22;;;19.70
60615;BMP280;46444;45.590;5.284;2022-10-24T00:14:48;98674.94;;;19.84
60615;BMP280;46444;45.590;5.284;2022-10-24T00:17:14;98652.53;;;19.92
60615;BMP280;46444;45.590;5.284;2022-10-24T00:19:39;98598.00;;;19.94
60615;BMP280;46444;45.590;5.284;2022-10-24T00:22:05;98565.38;;;19.85
60615;BMP280;46444;45.590;5.284;2022-10-24T00:24:30;98575.09;;;19.86
60615;BMP280;46444;45.590;5.284;2022-10-24T00:26:55;98608.03;;;19.80
60615;BMP280;46444;45.590;5.284;2022-10-24T00:29:21;98631.44;;;19.89
60615;BMP280;46444;45.590;5.284;2022-10-24T00:31:47;98645.59;;;19.86
60615;BMP280;46444;45.590;5.284;2022-10-24T00:34:13;98646.41;;;19.73
60615;BMP280;46444;45.590;5.284;2022-10-24T00:36:38;98653.63;;;19.78
60615;BMP280;46444;45.590;5.284;2022-10-24T00:39:04;98636.38;;;19.87
60615;BMP280;46444;45.590;5.284;2022-10-24T00:41:33;98624.31;;;19.93
60615;BMP280;46444;45.590;5.284;2022-10-24T00:46:36;98604.53;;;19.79
60615;BMP280;46444;45.590;5.284;2022-10-24T00:49:02;98583.94;;;19.92
60615;BMP280;46444;45.590;5.284;2022-10-24T00:51:32;98570.28;;;19.97
60615;BMP280;46444;45.590;5.284;2022-10-24T00:54:06;98593.19;;;20.04
60615;BMP280;46444;45.590;5.284;2022-10-24T00:56:35;98581.16;;;20.10
60615;BMP280;46444;45.590;5.284;2022-10-24T00:59:04;98576.22;;;20.12
60615;BMP280;46444;45.590;5.284;2022-10-24T01:01:30;98584.34;;;20.12
60615;BMP280;46444;45.590;5.284;2022-10-24T01:03:55;98583.38;;;20.08
60615;BMP280;46444;45.590;5.284;2022-10-24T01:09:29;98593.41;;;20.21
60615;BMP280;46444;45.590;5.284;2022-10-24T01:15:12;98586.13;;;20.30
60615;BMP280;46444;45.590;5.284;2022-10-24T01:26:27;98611.69;;;20.02
60615;BMP280;46444;45.590;5.284;2022-10-24T01:31:57;98560.72;;;19.99
60615;BMP280;46444;45.590;5.284;2022-10-24T01:34:31;98573.06;;;19.92
60615;BMP280;46444;45.590;5.284;2022-10-24T01:37:01;98599.59;;;19.81
60615;BMP280;46444;45.590;5.284;2022-10-24T01:39:33;98601.72;;;19.84
60615;BMP280;46444;45.590;5.284;2022-10-24T01:42:01;98581.91;;;19.70
60615;BMP280;46444;45.590;5.284;2022-10-24T01:44:34;98544.97;;;19.74
60615;BMP280;46444;45.590;5.284;2022-10-24T01:47:05;98508.41;;;19.72
60615;BMP280;46444;45.590;5.284;2022-10-24T01:49:35;98523.28;;;19.74
60615;BMP280;46444;45.590;5.284;2022-10-24T01:52:03;98532.91;;;19.80
60615;BMP280;46444;45.590;5.284;2022-10-24T01:54:31;98532.81;;;19.85
60615;BMP280;46444;45.590;5.284;2022-10-24T01:56:57;98543.34;;;19.87
60615;BMP280;46444;45.590;5.284;2022-10-24T02:02:03;98577.94;;;20.08
60615;BMP280;46444;45.590;5.284;2022-10-24T02:04:31;98562.16;;;20.10
60615;BMP280;46444;45.590;5.284;2022-10-24T02:07:00;98585.16;;;20.13
60615;BMP280;46444;45.590;5.284;2022-10-24T02:09:27;98544.19;;;20.14
60615;BMP280;46444;45.590;5.284;2022-10-24T02:11:55;98552.69;;;20.21
60615;BMP280;46444;45.590;5.284;2022-10-24T02:14:28;98529.50;;;20.15
60615;BMP280;46444;45.590;5.284;2022-10-24T02:16:55;98529.69;;;20.19
60615;BMP280;46444;45.590;5.284;2022-10-24T02:19:21;98536.81;;;20.15
60615;BMP280;46444;45.590;5.284;2022-10-24T02:21:52;98538.13;;;20.17
60615;BMP280;46444;45.590;5.284;2022-10-24T02:24:27;98550.59;;;20.18
60615;BMP280;46444;45.590;5.284;2022-10-24T02:27:00;98580.72;;;20.03
60615;BMP280;46444;45.590;5.284;2022-10-24T02:29:35;98578.50;;;19.92
60615;BMP280;46444;45.590;5.284;2022-10-24T02:32:06;98608.84;;;19.80
60615;BMP280;46444;45.590;5.284;2022-10-24T02:34:33;98561.53;;;19.86
60615;BMP280;46444;45.590;5.284;2022-10-24T02:37:01;98525.69;;;19.62
60615;BMP280;46444;45.590;5.284;2022-10-24T02:39:29;98519.16;;;19.63
60615;BMP280;46444;45.590;5.284;2022-10-24T02:41:55;98522.16;;;19.75
60615;BMP280;46444;45.590;5.284;2022-10-24T02:44:22;98531.00;;;19.81
60615;BMP280;46444;45.590;5.284;2022-10-24T02:46:52;98536.94;;;19.83
60615;BMP280;46444;45.590;5.284;2022-10-24T02:49:18;98542.75;;;19.90
60615;BMP280;46444;45.590;5.284;2022-10-24T02:51:45;98538.53;;;19.84
60615;BMP280;46444;45.590;5.284;2022-10-24T02:54:12;98539.22;;;19.89
60615;BMP280;46444;45.590;5.284;2022-10-24T02:56:42;98531.72;;;19.86
60615;BMP280;46444;45.590;5.284;2022-10-24T02:59:08;98533.72;;;19.81
60615;BMP280;46444;45.590;5.284;2022-10-24T03:01:33;98536.13;;;19.82
60615;BMP280;46444;45.590;5.284;2022-10-24T03:03:59;98538.34;;;19.80
60615;BMP280;46444;45.590;5.284;2022-10-24T03:06:24;98536.41;;;19.94
60615;BMP280;46444;45.590;5.284;2022-10-24T03:08:49;98542.03;;;19.98
60615;BMP280;46444;45.590;5.284;2022-10-24T03:11:14;98542.56;;;20.00
60615;BMP280;46444;45.590;5.284;2022-10-24T03:13:40;98541.34;;;19.92
60615;BMP280;46444;45.590;5.284;2022-10-24T03:16:05;98543.34;;;20.00
60615;BMP280;46444;45.590;5.284;2022-10-24T03:18:31;98541.16;;;20.02
60615;BMP280;46444;45.590;5.284;2022-10-24T03:20:56;98539.34;;;20.11
60615;BMP280;46444;45.590;5.284;2022-10-24T03:23:22;98534.94;;;20.15
60615;BMP280;46444;45.590;5.284;2022-10-24T03:25:49;98527.28;;;20.17
60615;BMP280;46444;45.590;5.284;2022-10-24T03:28:14;98511.28;;;20.16
60615;BMP280;46444;45.590;5.284;2022-10-24T03:30:40;98504.47;;;20.18
60615;BMP280;46444;45.590;5.284;2022-10-24T03:33:05;98509.41;;;20.16
60615;BMP280;46444;45.590;5.284;2022-10-24T03:35:30;98513.22;;;20.15
60615;BMP280;46444;45.590;5.284;2022-10-24T03:37:56;98547.19;;;20.13
60615;BMP280;46444;45.590;5.284;2022-10-24T03:40:21;98544.84;;;20.20
60615;BMP280;46444;45.590;5.284;2022-10-24T03:42:46;98533.72;;;20.21
60615;BMP280;46444;45.590;5.284;2022-10-24T03:45:12;98536.09;;;20.23
60615;BMP280;46444;45.590;5.284;2022-10-24T03:47:37;98536.91;;;20.23
60615;BMP280;46444;45.590;5.284;2022-10-24T03:50:04;98532.97;;;20.29
60615;BMP280;46444;45.590;5.284;2022-10-24T03:52:30;98546.16;;;20.22
60615;BMP280;46444;45.590;5.284;2022-10-24T03:54:55;98570.47;;;20.27
60615;BMP280;46444;45.590;5.284;2022-10-24T03:57:21;98569.47;;;20.23
60615;BMP280;46444;45.590;5.284;2022-10-24T03:59:46;98562.94;;;20.24
60615;BMP280;46444;45.590;5.284;2022-10-24T04:02:11;98569.97;;;20.25
60615;BMP280;46444;45.590;5.284;2022-10-24T04:04:38;98564.66;;;20.20
60615;BMP280;46444;45.590;5.284;2022-10-24T04:07:03;98583.13;;;20.18
60615;BMP280;46444;45.590;5.284;2022-10-24T04:09:29;98589.78;;;20.26
60615;BMP280;46444;45.590;5.284;2022-10-24T04:11:55;98584.63;;;20.24
60615;BMP280;46444;45.590;5.284;2022-10-24T04:14:20;98591.19;;;20.23
60615;BMP280;46444;45.590;5.284;2022-10-24T04:16:45;98588.84;;;20.17
60615;BMP280;46444;45.590;5.284;2022-10-24T04:19:11;98588.06;;;20.16
60615;BMP280;46444;45.590;5.284;2022-10-24T04:21:36;98590.31;;;20.14
60615;BMP280;46444;45.590;5.284;2022-10-24T04:24:02;98587.59;;;20.14
60615;BMP280;46444;45.590;5.284;2022-10-24T04:26:27;98588.38;;;20.15
60615;BMP280;46444;45.590;5.284;2022-10-24T04:28:53;98578.34;;;20.15
60615;BMP280;46444;45.590;5.284;2022-10-24T04:31:18;98574.81;;;20.15
60615;BMP280;46444;45.590;5.284;2022-10-24T04:33:44;98575.09;;;20.13
60615;BMP280;46444;45.590;5.284;2022-10-24T04:36:09;98578.94;;;20.12
60615;BMP280;46444;45.590;5.284;2022-10-24T04:38:34;98595.22;;;20.12
60615;BMP280;46444;45.590;5.284;2022-10-24T04:41:00;98605.44;;;20.02
60615;BMP280;46444;45.590;5.284;2022-10-24T04:43:26;98600.44;;;20.09
60615;BMP280;46444;45.590;5.284;2022-10-24T04:45:51;98600.44;;;20.09
60615;BMP280;46444;45.590;5.284;2022-10-24T04:48:16;98618.13;;;20.06
60615;BMP280;46444;45.590;5.284;2022-10-24T04:50:43;98605.44;;;20.02
60615;BMP280;46444;45.590;5.284;2022-10-24T04:53:09;98601.63;;;20.03
60615;BMP280;46444;45.590;5.284;2022-10-24T04:55:35;98587.75;;;20.04
60615;BMP280;46444;45.590;5.284;2022-10-24T04:58:01;98586.34;;;19.93
60615;BMP280;46444;45.590;5.284;2022-10-24T05:00:26;98587.94;;;19.94
60615;BMP280;46444;45.590;5.284;2022-10-24T05:02:52;98583.53;;;19.98
60615;BMP280;46444;45.590;5.284;2022-10-24T05:05:17;98587.16;;;19.94
60615;BMP280;46444;45.590;5.284;2022-10-24T05:07:43;98587.94;;;19.94
60615;BMP280;46444;45.590;5.284;2022-10-24T05:10:09;98594.97;;;19.95
60615;BMP280;46444;45.590;5.284;2022-10-24T05:12:35;98596.59;;;19.96
60615;BMP280;46444;45.590;5.284;2022-10-24T05:15:00;98600.72;;;19.94
60615;BMP280;46444;45.590;5.284;2022-10-24T05:17:26;98588.75;;;19.95
60615;BMP280;46444;45.590;5.284;2022-10-24T05:19:51;98591.19;;;19.96
60615;BMP280;46444;45.590;5.284;2022-10-24T05:22:16;98581.75;;;19.94
60615;BMP280;46444;45.590;5.284;2022-10-24T05:24:42;98586.84;;;19.95
60615;BMP280;46444;45.590;5.284;2022-10-24T05:27:07;98592.25;;;19.95
60615;BMP280;46444;45.590;5.284;2022-10-24T05:29:33;98572.69;;;19.98
60615;BMP280;46444;45.590;5.284;2022-10-24T05:31:58;98578.81;;;19.90
60615;BMP280;46444;45.590;5.284;2022-10-24T05:34:23;98584.75;;;19.92
60615;BMP280;46444;45.590;5.284;2022-10-24T05:36:50;98585.75;;;19.96
60615;BMP280;46444;45.590;5.284;2022-10-24T05:39:15;98590.16;;;19.92
60615;BMP280;46444;45.590;5.284;2022-10-24T05:41:40;98581.41;;;19.95
60615;BMP280;46444;45.590;5.284;2022-10-24T05:44:06;98584.75;;;19.92
60615;BMP280;46444;45.590;5.284;2022-10-24T05:46:31;98588.75;;;19.95
60615;BMP280;46444;45.590;5.284;2022-10-24T05:48:56;98597.19;;;19.93
60615;BMP280;46444;45.590;5.284;2022-10-24T05:51:22;98601.00;;;19.92
60615;BMP280;46444;45.590;5.284;2022-10-24T05:53:47;98596.59;;;19.96
60615;BMP280;46444;45.590;5.284;2022-10-24T05:56:12;98598.00;;;19.94
60615;BMP280;46444;45.590;5.284;2022-10-24T05:58:38;98608.25;;;19.97
60615;BMP280;46444;45.590;5.284;2022-10-24T06:01:03;98597.19;;;19.93
60615;BMP280;46444;45.590;5.284;2022-10-24T06:03:29;98599.41;;;19.91
60615;BMP280;46444;45.590;5.284;2022-10-24T06:05:54;98601.00;;;19.92
60615;BMP280;46444;45.590;5.284;2022-10-24T06:08:19;98612.44;;;19.89
60615;BMP280;46444;45.590;5.284;2022-10-24T06:10:47;98619.72;;;19.94
60615;BMP280;46444;45.590;5.284;2022-10-24T06:13:12;98640.59;;;19.93
60615;BMP280;46444;45.590;5.284;2022-10-24T06:15:40;98638.16;;;19.92
60615;BMP280;46444;45.590;5.284;2022-10-24T06:18:06;98641.69;;;19.92
60615;BMP280;46444;45.590;5.284;2022-10-24T06:20:31;98646.00;;;19.93
60615;BMP280;46444;45.590;5.284;2022-10-24T06:22:57;98652.84;;;19.91
60615;BMP280;46444;45.590;5.284;2022-10-24T06:25:22;98652.84;;;19.91
60615;BMP280;46444;45.590;5.284;2022-10-24T06:27:47;98657.69;;;19.94
60615;BMP280;46444;45.590;5.284;2022-10-24T06:30:13;98664.72;;;19.95
60615;BMP280;46444;45.590;5.284;2022-10-24T06:32:39;98662.28;;;19.93
60615;BMP280;46444;45.590;5.284;2022-10-24T06:35:05;98644.22;;;19.89
60615;BMP280;46444;45.590;5.284;2022-10-24T06:37:31;98639.47;;;19.94
60615;BMP280;46444;45.590;5.284;2022-10-24T06:39:58;98642.38;;;19.98
60615;BMP280;46444;45.590;5.284;2022-10-24T06:42:23;98645.44;;;19.96
60615;BMP280;46444;45.590;5.284;2022-10-24T06:44:48;98645.72;;;19.95
60615;BMP280;46444;45.590;5.284;2022-10-24T06:47:15;98643.78;;;19.95
60615;BMP280;46444;45.590;5.284;2022-10-24T06:49:41;98650.63;;;19.93
60615;BMP280;46444;45.590;5.284;2022-10-24T06:52:06;98658.47;;;19.94
60615;BMP280;46444;45.590;5.284;2022-10-24T06:54:32;98660.06;;;19.95
60615;BMP280;46444;45.590;5.284;2022-10-24T06:56:59;98659.47;;;19.98
60615;BMP280;46444;45.590;5.284;2022-10-24T06:59:25;98659.00;;;19.96
60615;BMP280;46444;45.590;5.284;2022-10-24T07:01:51;98649.94;;;20.01
60615;BMP280;46444;45.590;5.284;2022-10-24T07:04:16;98634.78;;;20.00
60615;BMP280;46444;45.590;5.284;2022-10-24T07:06:42;98646.41;;;20.00
60615;BMP280;46444;45.590;5.284;2022-10-24T07:09:10;98639.09;;;20.01
60615;BMP280;46444;45.590;5.284;2022-10-24T07:11:35;98649.66;;;20.02
60615;BMP280;46444;45.590;5.284;2022-10-24T07:14:01;98658.09;;;20.01
60615;BMP280;46444;45.590;5.284;2022-10-24T07:16:27;98656.69;;;20.03
60615;BMP280;46444;45.590;5.284;2022-10-24T07:18:52;98663.66;;;20.09
60615;BMP280;46444;45.590;5.284;2022-10-24T07:21:20;98668.75;;;20.11
60615;BMP280;46444;45.590;5.284;2022-10-24T07:23:46;98678.00;;;20.10
60615;BMP280;46444;45.590;5.284;2022-10-24T07:26:14;98676.41;;;20.09
60615;BMP280;46444;45.590;5.284;2022-10-24T07:28:40;98688.25;;;20.13
60615;BMP280;46444;45.590;5.284;2022-10-24T07:31:07;98699.69;;;20.10
60615;BMP280;46444;45.590;5.284;2022-10-24T07:33:33;98698.28;;;20.12
60615;BMP280;46444;45.590;5.284;2022-10-24T07:36:00;98692.59;;;20.14
60615;BMP280;46444;45.590;5.284;2022-10-24T07:38:25;98690.44;;;20.11
60615;BMP280;46444;45.590;5.284;2022-10-24T07:40:51;98699.13;;;20.13
60615;BMP280;46444;45.590;5.284;2022-10-24T07:43:16;98696.59;;;20.16
60615;BMP280;46444;45.590;5.284;2022-10-24T07:45:42;98698.69;;;20.19
60615;BMP280;46444;45.590;5.284;2022-10-24T07:48:08;98708.69;;;20.24
60615;BMP280;46444;45.590;5.284;2022-10-24T07:50:43;98701.63;;;20.23
60615;BMP280;46444;45.590;5.284;2022-10-24T07:53:10;98706.16;;;20.27
60615;BMP280;46444;45.590;5.284;2022-10-24T07:55:41;98706.16;;;20.27
60615;BMP280;46444;45.590;5.284;2022-10-24T07:58:07;98696.50;;;20.35
60615;BMP280;46444;45.590;5.284;2022-10-24T08:00:34;98712.38;;;20.41
60615;BMP280;46444;45.590;5.284;2022-10-24T08:03:00;98704.72;;;20.43
60615;BMP280;46444;45.590;5.284;2022-10-24T08:05:25;98710.97;;;20.44
60615;BMP280;46444;45.590;5.284;2022-10-24T08:07:51;98708.56;;;20.42
60615;BMP280;46444;45.590;5.284;2022-10-24T08:10:16;98708.75;;;20.46
60615;BMP280;46444;45.590;5.284;2022-10-24T08:12:42;98695.91;;;20.51
60615;BMP280;46444;45.590;5.284;2022-10-24T08:15:08;98688.44;;;20.57
60615;BMP280;46444;45.590;5.284;2022-10-24T08:17:34;98697.50;;;20.52
60615;BMP280;46444;45.590;5.284;2022-10-24T08:20:03;98707.16;;;20.58
60615;BMP280;46444;45.590;5.284;2022-10-24T08:22:28;98710.59;;;20.50
60615;BMP280;46444;45.590;5.284;2022-10-24T08:24:54;98696.09;;;20.55
60615;BMP280;46444;45.590;5.284;2022-10-24T08:27:19;98694.69;;;20.57
60615;BMP280;46444;45.590;5.284;2022-10-24T08:29:45;98705.75;;;20.61
60615;BMP280;46444;45.590;5.284;2022-10-24T08:32:10;98696.97;;;20.64
60615;BMP280;46444;45.590;5.284;2022-10-24T08:34:37;98694.47;;;20.67
60615;BMP280;46444;45.590;5.284;2022-10-24T08:37:02;98693.66;;;20.67
60615;BMP280;46444;45.590;5.284;2022-10-24T08:39:28;98688.44;;;20.70
60615;BMP280;46444;45.590;5.284;2022-10-24T08:41:56;98674.03;;;20.70
60615;BMP280;46444;45.590;5.284;2022-10-24T08:44:26;98685.22;;;20.68
60615;BMP280;46444;45.590;5.284;2022-10-24T08:49:54;98719.41;;;20.69
60615;BMP280;46444;45.590;5.284;2022-10-24T08:52:29;98708.94;;;20.63
60615;BMP280;46444;45.590;5.284;2022-10-24T08:54:58;98703.91;;;20.70
60615;BMP280;46444;45.590;5.284;2022-10-24T08:57:29;98705.22;;;20.72
60615;BMP280;46444;45.590;5.284;2022-10-24T08:59:59;98710.75;;;20.67
60615;BMP280;46444;45.590;5.284;2022-10-24T09:02:30;98714.97;;;20.73
60615;BMP280;46444;45.590;5.284;2022-10-24T09:04:59;98697.16;;;20.67
60615;BMP280;46444;45.590;5.284;2022-10-24T09:07:25;98692.47;;;20.59
60615;BMP280;46444;45.590;5.284;2022-10-24T09:10:02;98694.25;;;20.64
60615;BMP280;46444;45.590;5.284;2022-10-24T09:12:29;98670.34;;;20.66
60615;BMP280;46444;45.590;5.284;2022-10-24T09:14:57;98667.25;;;20.59
60615;BMP280;46444;45.590;5.284;2022-10-24T09:17:30;98688.63;;;20.60
60615;BMP280;46444;45.590;5.284;2022-10-24T09:19:58;98723.06;;;20.51
60615;BMP280;46444;45.590;5.284;2022-10-24T09:22:27;98741.16;;;20.56
60615;BMP280;46444;45.590;5.284;2022-10-24T09:25:00;98776.16;;;20.57
60615;BMP280;46444;45.590;5.284;2022-10-24T09:27:29;98797.56;;;20.45
60615;BMP280;46444;45.590;5.284;2022-10-24T09:29:57;98799.41;;;20.31
60615;BMP280;46444;45.590;5.284;2022-10-24T09:32:25;98769.28;;;20.46
60615;BMP280;46444;45.590;5.284;2022-10-24T09:34:53;98768.88;;;20.39
60615;BMP280;46444;45.590;5.284;2022-10-24T09:37:39;98761.09;;;20.19
60615;BMP280;46444;45.590;5.284;2022-10-24T09:40:06;98724.03;;;20.28
60615;BMP280;46444;45.590;5.284;2022-10-24T09:42:32;98718.63;;;20.28
60615;BMP280;46444;45.590;5.284;2022-10-24T09:44:57;98720.13;;;20.34
60615;BMP280;46444;45.590;5.284;2022-10-24T09:47:27;98727.16;;;20.22
60615;BMP280;46444;45.590;5.284;2022-10-24T09:49:53;98745.44;;;20.16
60615;BMP280;46444;45.590;5.284;2022-10-24T09:52:22;98758.41;;;20.06
60615;BMP280;46444;45.590;5.284;2022-10-24T09:57:38;98755.94;;;20.04
60615;BMP280;46444;45.590;5.284;2022-10-24T10:00:04;98743.94;;;20.10
60615;BMP280;46444;45.590;5.284;2022-10-24T10:02:32;98747.31;;;20.02
60615;BMP280;46444;45.590;5.284;2022-10-24T10:07:29;98749.28;;;19.97
60615;BMP280;46444;45.590;5.284;2022-10-24T10:10:06;98779.53;;;19.90
60615;BMP280;46444;45.590;5.284;2022-10-24T10:12:44;98800.69;;;19.88
60615;BMP280;46444;45.590;5.284;2022-10-24T10:15:38;98780.78;;;19.79
60615;BMP280;46444;45.590;5.284;2022-10-24T10:23:50;98784.13;;;19.90
60615;BMP280;46444;45.590;5.284;2022-10-24T10:26:26;98787.47;;;20.00
60615;BMP280;46444;45.590;5.284;2022-10-24T10:31:43;98781.31;;;20.27
60615;BMP280;46444;45.590;5.284;2022-10-24T10:34:38;98791.59;;;20.30
60615;BMP280;46444;45.590;5.284;2022-10-24T10:43:36;98774.94;;;20.50
60615;BMP280;46444;45.590;5.284;2022-10-24T10:51:49;98779.56;;;20.76
60615;BMP280;46444;45.590;5.284;2022-10-24T10:54:19;98776.84;;;20.76
60615;BMP280;46444;45.590;5.284;2022-10-24T10:56:59;98769.38;;;20.82
60615;BMP280;46444;45.590;5.284;2022-10-24T10:59:27;98771.53;;;20.98
60615;BMP280;46444;45.590;5.284;2022-10-24T11:05:44;98770.31;;;21.04
60615;BMP280;46444;45.590;5.284;2022-10-24T11:10:24;98757.91;;;21.12
60615;BMP280;46444;45.590;5.284;2022-10-24T11:12:53;98757.31;;;21.15
60615;BMP280;46444;45.590;5.284;2022-10-24T11:15:23;98757.97;;;21.20
60615;BMP280;46444;45.590;5.284;2022-10-24T11:17:59;98758.81;;;21.07
60615;BMP280;46444;45.590;5.284;2022-10-24T11:21:03;98762.00;;;21.23
60615;BMP280;46444;45.590;5.284;2022-10-24T11:23:48;98775.50;;;21.14
60615;BMP280;46444;45.590;5.284;2022-10-24T11:26:22;98772.38;;;21.21
60615;BMP280;46444;45.590;5.284;2022-10-24T11:29:11;98773.78;;;21.18
60615;BMP280;46444;45.590;5.284;2022-10-24T11:31:42;98775.47;;;21.28
60615;BMP280;46444;45.590;5.284;2022-10-24T11:39:51;98761.22;;;21.22
60615;BMP280;46444;45.590;5.284;2022-10-24T11:45:12;98769.25;;;21.27
60615;BMP280;46444;45.590;5.284;2022-10-24T11:48:05;98757.75;;;21.30
60615;BMP280;46444;45.590;5.284;2022-10-24T11:50:41;98743.06;;;21.31
60615;BMP280;46444;45.590;5.284;2022-10-24T11:56:04;98750.53;;;21.26
60615;BMP280;46444;45.590;5.284;2022-10-24T11:58:48;98737.25;;;21.24
60615;BMP280;46444;45.590;5.284;2022-10-24T12:04:27;98744.56;;;21.24
60615;BMP280;46444;45.590;5.284;2022-10-24T12:09:54;98742.56;;;21.29
60615;BMP280;46444;45.590;5.284;2022-10-24T12:15:01;98734.25;;;21.12
60615;BMP280;46444;45.590;5.284;2022-10-24T12:17:37;98721.84;;;21.20
60615;BMP280;46444;45.590;5.284;2022-10-24T12:20:06;98728.25;;;21.02
60615;BMP280;46444;45.590;5.284;2022-10-24T12:22:41;98718.13;;;21.16
60615;BMP280;46444;45.590;5.284;2022-10-24T12:27:40;98733.25;;;21.08
60615;BMP280;46444;45.590;5.284;2022-10-24T12:32:39;98702.72;;;20.89
60615;BMP280;46444;45.590;5.284;2022-10-24T12:43:31;98730.66;;;20.63
60615;BMP280;46444;45.590;5.284;2022-10-24T12:45:59;98747.56;;;20.73
60615;BMP280;46444;45.590;5.284;2022-10-24T12:48:35;98736.63;;;20.51
60615;BMP280;46444;45.590;5.284;2022-10-24T12:51:28;98736.81;;;20.41
60615;BMP280;46444;45.590;5.284;2022-10-24T12:54:01;98744.75;;;20.51
60615;BMP280;46444;45.590;5.284;2022-10-24T12:56:28;98733.28;;;20.54
60615;BMP280;46444;45.590;5.284;2022-10-24T12:59:00;98729.69;;;20.59
60615;BMP280;46444;45.590;5.284;2022-10-24T13:01:35;98719.41;;;20.56
60615;BMP280;46444;45.590;5.284;2022-10-24T13:23:45;98679.44;;;19.75
60615;BMP280;46444;45.590;5.284;2022-10-24T13:28:58;98685.59;;;19.94
60615;BMP280;46444;45.590;5.284;2022-10-24T13:33:48;98690.44;;;19.97
60615;BMP280;46444;45.590;5.284;2022-10-24T13:36:19;98706.00;;;20.05
60615;BMP280;46444;45.590;5.284;2022-10-24T13:38:57;98703.91;;;20.02
60615;BMP280;46444;45.590;5.284;2022-10-24T13:41:36;98704.47;;;19.99
60615;BMP280;46444;45.590;5.284;2022-10-24T13:44:45;98701.47;;;20.01
60615;BMP280;46444;45.590;5.284;2022-10-24T13:50:03;98688.25;;;20.13
60615;BMP280;46444;45.590;5.284;2022-10-24T13:57:57;98704.34;;;20.63
60615;BMP280;46444;45.590;5.284;2022-10-24T14:00:27;98704.34;;;20.63
60615;BMP280;46444;45.590;5.284;2022-10-24T14:02:53;98704.81;;;20.65
60615;BMP280;46444;45.590;5.284;2022-10-24T14:07:58;98708.84;;;21.30
60615;BMP280;46444;45.590;5.284;2022-10-24T14:10:23;98717.34;;;21.15
60615;BMP280;46444;45.590;5.284;2022-10-24T14:12:50;98726.38;;;21.24
60615;BMP280;46444;45.590;5.284;2022-10-24T14:15:23;98734.53;;;21.24
60615;BMP280;46444;45.590;5.284;2022-10-24T14:18:12;98739.81;;;21.43
60615;BMP280;46444;45.590;5.284;2022-10-24T14:20:39;98740.41;;;21.40
60615;BMP280;46444;45.590;5.284;2022-10-24T14:23:38;98736.56;;;21.41
60615;BMP280;46444;45.590;5.284;2022-10-24T14:26:12;98727.63;;;21.40
60615;BMP280;46444;45.590;5.284;2022-10-24T14:28:43;98730.56;;;21.30
60615;BMP280;46444;45.590;5.284;2022-10-24T14:31:37;98729.34;;;21.36
60615;BMP280;46444;45.590;5.284;2022-10-24T14:34:04;98720.72;;;21.34
60615;BMP280;46444;45.590;5.284;2022-10-24T14:36:37;98728.59;;;21.22
60615;BMP280;46444;45.590;5.284;2022-10-24T14:39:04;98726.19;;;21.21
60615;BMP280;46444;45.590;5.284;2022-10-24T14:41:37;98727.56;;;21.32
60615;BMP280;46444;45.590;5.284;2022-10-24T14:44:04;98722.78;;;21.37
60615;BMP280;46444;45.590;5.284;2022-10-24T14:46:43;98715.56;;;21.33
60615;BMP280;46444;45.590;5.284;2022-10-24T14:49:28;98710.44;;;21.31
60615;BMP280;46444;45.590;5.284;2022-10-24T14:51:59;98689.91;;;21.25
60615;BMP280;46444;45.590;5.284;2022-10-24T14:54:29;98700.81;;;21.12
60615;BMP280;46444;45.590;5.284;2022-10-24T14:56:56;98707.75;;;21.18
60615;BMP280;46444;45.590;5.284;2022-10-24T15:04:49;98732.66;;;21.11
60615;BMP280;46444;45.590;5.284;2022-10-24T15:10:00;98727.72;;;21.13
60615;BMP280;46444;45.590;5.284;2022-10-24T15:12:30;98719.94;;;21.20
60615;BMP280;46444;45.590;5.284;2022-10-24T15:14:58;98726.06;;;21.26
60615;BMP280;46444;45.590;5.284;2022-10-24T15:17:29;98725.38;;;21.20
60615;BMP280;46444;45.590;5.284;2022-10-24T15:19:56;98742.19;;;21.22
60615;BMP280;46444;45.590;5.284;2022-10-24T15:22:29;98754.50;;;21.06
60615;BMP280;46444;45.590;5.284;2022-10-24T15:24:57;98747.72;;;21.17
60615;BMP280;46444;45.590;5.284;2022-10-24T15:27:29;98747.63;;;21.22
60615;BMP280;46444;45.590;5.284;2022-10-24T15:29:55;98748.75;;;21.21
60615;BMP280;46444;45.590;5.284;2022-10-24T15:32:21;98751.56;;;21.16
60615;BMP280;46444;45.590;5.284;2022-10-24T15:34:47;98743.53;;;21.11
60615;BMP280;46444;45.590;5.284;2022-10-24T15:37:21;98743.53;;;21.11
60615;BMP280;46444;45.590;5.284;2022-10-24T15:39:47;98745.34;;;21.02
60615;BMP280;46444;45.590;5.284;2022-10-24T15:42:13;98740.44;;;20.91
60615;BMP280;46444;45.590;5.284;2022-10-24T15:44:38;98744.94;;;20.95
60615;BMP280;46444;45.590;5.284;2022-10-24T15:47:04;98752.81;;;20.97
60615;BMP280;46444;45.590;5.284;2022-10-24T15:49:29;98756.94;;;20.94
60615;BMP280;46444;45.590;5.284;2022-10-24T15:51:56;98756.63;;;20.96
60615;BMP280;46444;45.590;5.284;2022-10-24T15:54:23;98764.47;;;20.97
60615;BMP280;46444;45.590;5.284;2022-10-24T15:56:52;98778.34;;;20.82
60615;BMP280;46444;45.590;5.284;2022-10-24T15:59:18;98783.28;;;20.80
60615;BMP280;46444;45.590;5.284;2022-10-24T16:01:49;98777.31;;;20.78
60615;BMP280;46444;45.590;5.284;2022-10-24T16:04:16;98779.94;;;20.70
60615;BMP280;46444;45.590;5.284;2022-10-24T16:06:42;98776.16;;;20.71
60615;BMP280;46444;45.590;5.284;2022-10-24T16:09:20;98776.53;;;20.64
60615;BMP280;46444;45.590;5.284;2022-10-24T16:11:48;98784.88;;;20.54
60615;BMP280;46444;45.590;5.284;2022-10-24T16:14:19;98778.84;;;20.57
60615;BMP280;46444;45.590;5.284;2022-10-24T16:16:45;98779.97;;;20.56
60615;BMP280;46444;45.590;5.284;2022-10-24T16:19:11;98780.56;;;20.53
60615;BMP280;46444;45.590;5.284;2022-10-24T16:21:37;98795.25;;;20.52
60615;BMP280;46444;45.590;5.284;2022-10-24T16:24:03;98801.47;;;20.39
60615;BMP280;46444;45.590;5.284;2022-10-24T16:26:29;98799.84;;;20.38
60615;BMP280;46444;45.590;5.284;2022-10-24T16:28:54;98805.75;;;20.27
60615;BMP280;46444;45.590;5.284;2022-10-24T16:31:20;98794.50;;;20.20